Time;durP1;ratioP1;P1;durP2;ratioP2;P2;SDS_P1;SDS_P2;PMS_P1;PMS_P2;Temp;Humidity;BMP_temperature;BMP_pressure;BME280_temperature;BME280_humidity;BME280_pressure;Samples;Min_cycle;Max_cycle;Signal;HPM_P1;HPM_P2
2022/10/18 00:04:37;;;;;;;27.10;21.05;;;;;;;;;;9978948;28;20568;-76
2022/10/18 00:09:30;;;;;;;30.70;23.40;;;;;;;;;;9989028;28;20057;-76
2022/10/18 00:14:25;;;;;;;27.85;23.17;;;;;;;;;;9986434;28;20050;-76
2022/10/18 00:19:19;;;;;;;28.20;23.50;;;;;;;;;;9985358;28;20063;-77
2022/10/18 00:24:18;;;;;;;32.20;23.55;;;;;;;;;;9992367;28;20054;-76
2022/10/18 00:29:14;;;;;;;31.92;24.90;;;;;;;;;;9989922;28;20058;-77
2022/10/18 00:34:10;;;;;;;30.40;22.80;;;;;;;;;;9992615;28;20470;-77
2022/10/18 00:39:06;;;;;;;33.90;22.90;;;;;;;;;;9981546;28;20399;-76
2022/10/18 00:44:23;;;;;;;33.45;24.10;;;;;;;;;;9982705;28;20078;-77
2022/10/18 00:49:26;;;;;;;31.50;24.02;;;;;;;;;;9991196;28;20065;-79
2022/10/18 00:54:20;;;;;;;33.72;26.63;;;;;;;;;;9990391;28;20046;-81
2022/10/18 00:59:20;;;;;;;35.15;26.17;;;;;;;;;;9989640;28;20489;-77
2022/10/18 01:04:14;;;;;;;32.47;26.67;;;;;;;;;;9983673;28;20050;-77
2022/10/18 01:09:45;;;;;;;34.75;24.42;;;;;;;;;;9991155;28;20050;-77
2022/10/18 01:14:46;;;;;;;30.50;22.45;;;;;;;;;;9967071;28;20144;-77
2022/10/18 01:20:04;;;;;;;31.60;23.95;;;;;;;;;;9991896;28;20125;-76
2022/10/18 01:25:23;;;;;;;36.70;23.77;;;;;;;;;;9980902;28;20501;-77
2022/10/18 01:30:40;;;;;;;34.40;24.02;;;;;;;;;;9976562;28;20034;-77
2022/10/18 01:35:38;;;;;;;34.35;23.83;;;;;;;;;;9991051;28;20442;-77
2022/10/18 01:40:33;;;;;;;36.70;24.08;;;;;;;;;;9982565;28;20051;-77
2022/10/18 01:45:28;;;;;;;35.75;26.00;;;;;;;;;;9996517;28;20089;-77
2022/10/18 01:50:30;;;;;;;41.13;27.17;;;;;;;;;;9988538;28;20057;-77
2022/10/18 01:55:41;;;;;;;34.40;26.00;;;;;;;;;;9989859;28;20078;-77
2022/10/18 02:00:41;;;;;;;32.33;25.45;;;;;;;;;;9988825;28;20142;-76
2022/10/18 02:05:44;;;;;;;28.60;22.95;;;;;;;;;;9988341;28;20053;-77
2022/10/18 02:10:42;;;;;;;30.35;22.67;;;;;;;;;;9988445;28;20701;-78
2022/10/18 02:15:38;;;;;;;29.90;25.83;;;;;;;;;;9982691;28;20042;-76
2022/10/18 02:20:32;;;;;;;35.67;24.33;;;;;;;;;;9987033;28;20077;-76
2022/10/18 02:25:28;;;;;;;31.98;21.92;;;;;;;;;;9986509;28;20050;-75
2022/10/18 02:30:27;;;;;;;29.50;22.50;;;;;;;;;;9983414;28;20111;-76
2022/10/18 02:35:43;;;;;;;30.75;22.80;;;;;;;;;;9975287;28;20092;-78
2022/10/18 02:40:37;;;;;;;33.95;22.08;;;;;;;;;;9985990;28;20053;-79
2022/10/18 02:45:32;;;;;;;38.45;23.75;;;;;;;;;;9985100;28;20058;-77
2022/10/18 02:50:25;;;;;;;28.48;22.98;;;;;;;;;;9984477;28;20050;-76
2022/10/18 02:55:20;;;;;;;33.15;23.75;;;;;;;;;;9987759;28;20502;-77
2022/10/18 03:00:14;;;;;;;36.50;23.95;;;;;;;;;;9982475;28;20077;-77
2022/10/18 03:05:08;;;;;;;30.73;23.30;;;;;;;;;;9983522;28;20046;-77
2022/10/18 03:10:02;;;;;;;31.30;22.27;;;;;;;;;;9985522;28;20054;-77
2022/10/18 03:14:56;;;;;;;28.67;22.77;;;;;;;;;;9986338;28;20053;-76
2022/10/18 03:19:50;;;;;;;28.02;21.48;;;;;;;;;;9974557;28;20051;-76
2022/10/18 03:24:45;;;;;;;28.70;20.25;;;;;;;;;;9985360;28;20065;-77
2022/10/18 03:29:39;;;;;;;28.73;22.00;;;;;;;;;;9986559;28;20528;-77
2022/10/18 03:34:33;;;;;;;30.50;22.73;;;;;;;;;;9985328;28;20059;-76
2022/10/18 03:39:27;;;;;;;42.88;24.17;;;;;;;;;;9987758;28;20446;-77
2022/10/18 03:44:22;;;;;;;30.48;23.02;;;;;;;;;;9993950;28;20051;-77
2022/10/18 03:49:16;;;;;;;29.63;24.23;;;;;;;;;;9991720;28;20453;-77
2022/10/18 03:54:10;;;;;;;29.15;22.30;;;;;;;;;;9987046;28;20066;-77
2022/10/18 03:59:04;;;;;;;33.53;24.63;;;;;;;;;;9993406;28;20057;-76
2022/10/18 04:03:57;;;;;;;28.58;22.42;;;;;;;;;;9992650;28;20141;-76
2022/10/18 04:08:54;;;;;;;28.50;21.63;;;;;;;;;;9991979;28;20038;-76
2022/10/18 04:13:49;;;;;;;28.30;21.42;;;;;;;;;;9991697;28;20062;-76
2022/10/18 04:18:42;;;;;;;32.20;21.77;;;;;;;;;;9987847;28;20425;-77
2022/10/18 04:23:36;;;;;;;26.40;20.92;;;;;;;;;;9983816;28;20446;-75
2022/10/18 04:28:30;;;;;;;25.55;20.90;;;;;;;;;;9985009;28;20054;-76
2022/10/18 04:33:24;;;;;;;25.15;20.88;;;;;;;;;;9983254;28;20422;-77
2022/10/18 04:38:19;;;;;;;29.00;20.17;;;;;;;;;;9987549;28;20058;-76
2022/10/18 04:43:14;;;;;;;29.95;22.15;;;;;;;;;;9992109;28;20050;-76
2022/10/18 04:48:10;;;;;;;25.98;19.60;;;;;;;;;;9984140;28;20047;-79
2022/10/18 04:53:05;;;;;;;28.50;21.08;;;;;;;;;;9988833;28;20107;-79
2022/10/18 04:57:59;;;;;;;34.97;20.60;;;;;;;;;;9987243;28;20053;-77
2022/10/18 05:02:59;;;;;;;31.40;19.98;;;;;;;;;;9984155;28;20054;-79
2022/10/18 05:07:54;;;;;;;27.55;19.00;;;;;;;;;;9981473;28;20050;-76
2022/10/18 05:12:48;;;;;;;24.63;19.38;;;;;;;;;;9985007;28;20524;-77
2022/10/18 05:17:41;;;;;;;24.60;18.83;;;;;;;;;;9984322;28;20060;-75
2022/10/18 05:22:35;;;;;;;24.15;18.45;;;;;;;;;;9984377;28;20050;-75
2022/10/18 05:27:29;;;;;;;35.75;19.60;;;;;;;;;;9979432;28;20058;-76
2022/10/18 05:32:23;;;;;;;23.60;18.63;;;;;;;;;;9987015;28;20552;-75
2022/10/18 05:37:18;;;;;;;27.10;18.92;;;;;;;;;;9985132;28;20051;-75
2022/10/18 05:42:15;;;;;;;29.83;18.38;;;;;;;;;;9982233;28;20058;-75
2022/10/18 05:47:09;;;;;;;22.75;17.77;;;;;;;;;;9977622;28;20081;-74
2022/10/18 05:52:04;;;;;;;23.40;18.30;;;;;;;;;;9985299;28;20161;-72
2022/10/18 05:56:58;;;;;;;22.20;17.42;;;;;;;;;;9989060;28;20049;-71
2022/10/18 06:01:53;;;;;;;25.10;19.02;;;;;;;;;;9987646;28;20080;-71
2022/10/18 06:06:47;;;;;;;28.55;19.92;;;;;;;;;;9978048;28;20039;-70
2022/10/18 06:11:40;;;;;;;26.08;18.08;;;;;;;;;;9987269;28;20050;-70
2022/10/18 06:16:34;;;;;;;27.27;19.75;;;;;;;;;;9982688;28;20046;-75
2022/10/18 06:21:28;;;;;;;28.13;18.73;;;;;;;;;;9984817;28;20057;-79
2022/10/18 06:26:21;;;;;;;26.25;18.95;;;;;;;;;;9987088;28;20106;-73
2022/10/18 06:31:15;;;;;;;27.25;17.80;;;;;;;;;;9987374;28;20051;-79
2022/10/18 06:36:15;;;;;;;28.88;18.00;;;;;;;;;;9977819;28;20457;-76
2022/10/18 06:41:09;;;;;;;23.42;17.83;;;;;;;;;;9982679;28;20054;-77
2022/10/18 06:46:08;;;;;;;29.02;19.08;;;;;;;;;;9978253;28;20141;-77
2022/10/18 06:51:06;;;;;;;26.02;18.00;;;;;;;;;;9977028;28;20531;-78
2022/10/18 06:56:06;;;;;;;27.85;17.77;;;;;;;;;;9976853;28;20086;-79
2022/10/18 07:01:14;;;;;;;37.08;19.77;;;;;;;;;;10009718;28;20054;-79
2022/10/18 07:06:13;;;;;;;27.92;16.50;;;;;;;;;;9983798;28;20073;-76
2022/10/18 07:11:07;;;;;;;21.45;15.23;;;;;;;;;;9985982;28;20054;-76
2022/10/18 07:16:07;;;;;;;21.55;17.00;;;;;;;;;;9985466;28;20050;-76
2022/10/18 07:21:28;;;;;;;29.65;16.92;;;;;;;;;;9981143;28;20062;-77
2022/10/18 07:26:30;;;;;;;20.98;15.32;;;;;;;;;;9983550;28;20047;-77
2022/10/18 07:31:24;;;;;;;30.58;17.30;;;;;;;;;;9986293;28;20042;-79
2022/10/18 07:36:20;;;;;;;29.05;15.82;;;;;;;;;;9980552;28;20055;-76
2022/10/18 07:41:13;;;;;;;28.98;16.88;;;;;;;;;;9984018;28;20050;-77
2022/10/18 07:46:07;;;;;;;24.27;17.67;;;;;;;;;;10000706;28;20514;-76
2022/10/18 07:51:01;;;;;;;33.30;16.98;;;;;;;;;;9985469;28;20054;-77
2022/10/18 07:56:02;;;;;;;23.75;18.17;;;;;;;;;;9984847;28;20061;-77
2022/10/18 08:01:04;;;;;;;24.70;17.80;;;;;;;;;;9983362;28;20129;-78
2022/10/18 08:05:57;;;;;;;24.33;18.08;;;;;;;;;;9984660;28;20050;-77
2022/10/18 08:10:51;;;;;;;20.73;17.05;;;;;;;;;;9984820;28;20060;-76
2022/10/18 08:15:46;;;;;;;24.27;18.20;;;;;;;;;;9984955;28;20117;-76
2022/10/18 08:20:45;;;;;;;28.75;17.83;;;;;;;;;;9984139;28;20086;-75
2022/10/18 08:25:38;;;;;;;36.83;19.63;;;;;;;;;;9985784;28;20104;-75
2022/10/18 08:30:34;;;;;;;25.48;18.63;;;;;;;;;;9990784;28;20141;-75
2022/10/18 08:35:28;;;;;;;26.23;19.35;;;;;;;;;;9990272;28;20058;-75
2022/10/18 08:40:21;;;;;;;22.85;18.92;;;;;;;;;;9987440;28;20487;-75
2022/10/18 08:45:14;;;;;;;28.65;19.15;;;;;;;;;;9990482;28;20058;-74
2022/10/18 08:50:35;;;;;;;33.30;22.35;;;;;;;;;;9990262;28;20057;-75
2022/10/18 08:55:51;;;;;;;30.38;20.95;;;;;;;;;;9990251;28;20072;-75
2022/10/18 09:00:53;;;;;;;25.92;20.73;;;;;;;;;;9990604;28;20105;-75
2022/10/18 09:06:04;;;;;;;26.70;22.27;;;;;;;;;;9990582;28;20064;-75
2022/10/18 09:11:23;;;;;;;25.50;21.35;;;;;;;;;;10004697;28;20058;-75
2022/10/18 09:16:24;;;;;;;26.75;20.17;;;;;;;;;;9989372;28;20046;-74
2022/10/18 09:21:46;;;;;;;37.65;23.42;;;;;;;;;;9984515;28;20081;-75
2022/10/18 09:26:45;;;;;;;29.02;22.90;;;;;;;;;;9979816;28;20046;-75
2022/10/18 09:32:00;;;;;;;30.75;23.45;;;;;;;;;;9986842;28;20548;-75
2022/10/18 09:36:55;;;;;;;29.27;25.25;;;;;;;;;;9988056;28;20046;-76
2022/10/18 09:41:55;;;;;;;27.20;21.55;;;;;;;;;;9982711;28;20414;-76
2022/10/18 09:46:57;;;;;;;32.78;24.33;;;;;;;;;;9986480;28;20110;-75
2022/10/18 09:51:52;;;;;;;30.42;21.70;;;;;;;;;;9988783;28;20057;-74
2022/10/18 09:56:53;;;;;;;35.67;23.77;;;;;;;;;;9987011;28;20045;-75
2022/10/18 10:01:54;;;;;;;35.08;24.85;;;;;;;;;;9986815;28;20047;-72
2022/10/18 10:06:50;;;;;;;35.30;25.55;;;;;;;;;;9977373;28;20046;-72
2022/10/18 10:11:47;;;;;;;42.20;27.45;;;;;;;;;;9988321;28;20074;-72
2022/10/18 10:16:48;;;;;;;30.55;24.75;;;;;;;;;;9987616;28;20090;-72
2022/10/18 10:21:42;;;;;;;31.63;25.27;;;;;;;;;;9987662;28;20058;-72
2022/10/18 10:26:39;;;;;;;35.03;28.10;;;;;;;;;;9987886;28;20521;-73
2022/10/18 10:31:35;;;;;;;35.92;26.17;;;;;;;;;;9987029;28;20061;-73
2022/10/18 10:36:30;;;;;;;35.80;24.42;;;;;;;;;;9985792;28;20069;-73
2022/10/18 10:41:24;;;;;;;36.25;25.92;;;;;;;;;;9986865;28;20061;-73
2022/10/18 10:46:18;;;;;;;40.22;26.02;;;;;;;;;;9985536;28;20062;-73
2022/10/18 10:51:12;;;;;;;32.10;26.30;;;;;;;;;;9985455;28;20097;-72
2022/10/18 10:56:13;;;;;;;35.20;26.63;;;;;;;;;;10000441;28;20080;-74
2022/10/18 11:01:20;;;;;;;36.65;26.55;;;;;;;;;;9986975;28;20497;-71
2022/10/18 11:06:52;;;;;;;36.65;29.60;;;;;;;;;;9986525;28;20089;-72
2022/10/18 11:12:02;;;;;;;34.97;25.60;;;;;;;;;;9999472;28;20421;-72
2022/10/18 11:17:09;;;;;;;36.80;26.42;;;;;;;;;;10000663;28;20131;-72
2022/10/18 11:22:05;;;;;;;46.58;28.40;;;;;;;;;;9985331;28;20133;-72
2022/10/18 11:27:24;;;;;;;43.85;27.90;;;;;;;;;;9983741;28;20046;-73
2022/10/18 11:32:26;;;;;;;37.92;27.85;;;;;;;;;;9984110;28;20050;-76
2022/10/18 11:37:32;;;;;;;36.55;30.30;;;;;;;;;;9985157;28;20540;-74
2022/10/18 11:42:50;;;;;;;38.67;28.05;;;;;;;;;;9983439;28;20074;-73
2022/10/18 11:47:54;;;;;;;40.35;28.05;;;;;;;;;;9985265;28;20089;-73
2022/10/18 11:52:56;;;;;;;37.85;26.17;;;;;;;;;;9985222;28;20050;-74
2022/10/18 11:58:11;;;;;;;40.45;26.45;;;;;;;;;;9983557;28;20058;-72
2022/10/18 12:03:34;;;;;;;38.55;26.80;;;;;;;;;;9989962;28;20053;-71
2022/10/18 12:08:38;;;;;;;43.55;28.88;;;;;;;;;;9999217;28;20054;-75
2022/10/18 12:13:42;;;;;;;37.83;27.75;;;;;;;;;;9998043;28;20054;-75
2022/10/18 12:18:58;;;;;;;40.83;27.40;;;;;;;;;;9980209;28;20395;-74
2022/10/18 12:23:52;;;;;;;39.67;28.10;;;;;;;;;;9980922;28;20493;-74
2022/10/18 12:28:58;;;;;;;31.75;25.85;;;;;;;;;;9983072;28;20086;-74
2022/10/18 12:33:59;;;;;;;35.92;25.98;;;;;;;;;;9975333;28;20059;-76
2022/10/18 12:39:02;;;;;;;;;;;;;;;;;;9988230;28;20137;-75
2022/10/18 12:44:04;;;;;;;31.85;25.52;;;;;;;;;;9999480;28;19925;-75
2022/10/18 12:49:04;;;;;;;37.30;26.63;;;;;;;;;;9983366;28;20146;-76
2022/10/18 12:54:00;;;;;;;31.63;24.77;;;;;;;;;;9987974;28;20493;-75
2022/10/18 12:59:15;;;;;;;34.72;25.38;;;;;;;;;;9978421;28;20042;-75
2022/10/18 13:04:28;;;;;;;35.28;27.13;;;;;;;;;;9982761;28;20047;-77
2022/10/18 13:09:24;;;;;;;36.45;25.52;;;;;;;;;;9976807;28;20062;-76
2022/10/18 13:14:55;;;;;;;35.58;26.95;;;;;;;;;;9983172;28;20054;-76
2022/10/18 13:20:32;;;;;;;38.17;28.60;;;;;;;;;;9979581;28;20062;-75
2022/10/18 13:25:35;;;;;;;37.55;27.10;;;;;;;;;;9982847;28;20109;-75
2022/10/18 13:30:41;;;;;;;36.95;29.20;;;;;;;;;;9995730;28;20105;-75
2022/10/18 13:35:51;;;;;;;36.88;28.40;;;;;;;;;;9985214;28;20061;-80
2022/10/18 13:40:46;;;;;;;39.08;28.20;;;;;;;;;;9978837;28;20532;-79
2022/10/18 13:45:44;;;;;;;34.70;27.60;;;;;;;;;;9985298;28;20125;-76
2022/10/18 13:50:40;;;;;;;38.00;27.58;;;;;;;;;;9979376;28;20421;-76
2022/10/18 13:55:48;;;;;;;48.45;29.70;;;;;;;;;;9982079;28;20077;-76
2022/10/18 14:01:26;;;;;;;37.10;29.02;;;;;;;;;;9981076;28;20046;-77
2022/10/18 14:06:28;;;;;;;43.00;31.63;;;;;;;;;;9983063;28;20053;-77
2022/10/18 14:11:32;;;;;;;46.60;31.55;;;;;;;;;;9994752;28;20085;-76
2022/10/18 14:16:42;;;;;;;38.50;30.50;;;;;;;;;;9982399;28;20453;-76
2022/10/18 14:21:38;;;;;;;45.97;30.88;;;;;;;;;;9997171;28;20069;-76
2022/10/18 14:26:32;;;;;;;43.17;32.20;;;;;;;;;;9981753;28;20050;-76
2022/10/18 14:31:27;;;;;;;41.65;31.90;;;;;;;;;;9982792;28;20042;-77
2022/10/18 14:36:19;;;;;;;37.55;30.35;;;;;;;;;;9979842;28;20042;-72
2022/10/18 14:41:17;;;;;;;40.22;29.10;;;;;;;;;;9983928;28;20667;-75
2022/10/18 14:46:25;;;;;;;42.70;27.30;;;;;;;;;;9985430;28;20092;-75
2022/10/18 14:51:22;;;;;;;41.17;32.17;;;;;;;;;;9981827;28;20054;-73
2022/10/18 14:56:30;;;;;;;48.58;30.45;;;;;;;;;;9996541;28;20105;-77
2022/10/18 15:01:28;;;;;;;38.97;27.83;;;;;;;;;;9979203;28;20699;-76
2022/10/18 15:06:22;;;;;;;;;;;;;;;;;;9977039;28;20050;-71
2022/10/18 15:11:16;;;;;;;38.53;27.65;;;;;;;;;;9972430;28;20005;-77
2022/10/18 15:16:17;;;;;;;34.15;27.58;;;;;;;;;;9976001;28;20679;-75
2022/10/18 15:21:26;;;;;;;36.80;27.67;;;;;;;;;;9986799;28;20062;-78
2022/10/18 15:26:29;;;;;;;41.70;30.02;;;;;;;;;;9976202;28;20085;-77
2022/10/18 15:31:28;;;;;;;46.05;32.90;;;;;;;;;;9976445;28;20057;-69
2022/10/18 15:36:31;;;;;;;38.90;29.75;;;;;;;;;;9983527;28;20469;-74
2022/10/18 15:41:58;;;;;;;44.17;30.45;;;;;;;;;;9985243;28;20085;-69
2022/10/18 15:47:20;;;;;;;39.30;32.22;;;;;;;;;;10015788;28;20526;-70
2022/10/18 15:52:29;;;;;;;40.25;29.10;;;;;;;;;;9984453;28;20177;-70
2022/10/18 15:57:52;;;;;;;41.90;31.05;;;;;;;;;;9986255;28;20054;-70
2022/10/18 16:02:53;;;;;;;45.80;29.90;;;;;;;;;;9986065;28;20085;-69
2022/10/18 16:07:53;;;;;;;51.35;33.10;;;;;;;;;;9990812;28;20409;-70
2022/10/18 16:12:47;;;;;;;44.53;32.80;;;;;;;;;;9991397;28;20041;-70
2022/10/18 16:17:53;;;;;;;46.55;31.55;;;;;;;;;;9989955;28;20124;-70
2022/10/18 16:22:56;;;;;;;41.55;30.52;;;;;;;;;;9992229;28;20161;-70
2022/10/18 16:27:53;;;;;;;52.22;32.58;;;;;;;;;;9991384;28;20054;-69
2022/10/18 16:32:53;;;;;;;51.72;30.73;;;;;;;;;;9988341;28;20047;-70
2022/10/18 16:37:49;;;;;;;;;;;;;;;;;;9981655;28;20120;-69
2022/10/18 16:42:44;;;;;;;47.92;33.03;;;;;;;;;;9983910;28;19968;-69
2022/10/18 16:47:41;;;;;;;46.30;32.83;;;;;;;;;;9989974;28;20116;-68
2022/10/18 16:52:38;;;;;;;41.08;32.45;;;;;;;;;;9982733;28;20472;-68
2022/10/18 16:57:36;;;;;;;47.58;27.52;;;;;;;;;;9986923;28;20449;-69
2022/10/18 17:02:35;;;;;;;69.67;33.70;;;;;;;;;;9969690;28;20054;-68
2022/10/18 17:07:37;;;;;;;47.53;32.33;;;;;;;;;;9981653;28;20047;-68
2022/10/18 17:12:34;;;;;;;49.45;31.75;;;;;;;;;;9980294;28;20054;-70
2022/10/18 17:17:32;;;;;;;44.08;29.50;;;;;;;;;;9982183;28;20066;-69
2022/10/18 17:22:31;;;;;;;51.85;32.03;;;;;;;;;;9987744;28;20081;-69
2022/10/18 17:27:30;;;;;;;50.60;28.80;;;;;;;;;;9979278;28;20050;-68
2022/10/18 17:32:30;;;;;;;36.95;27.73;;;;;;;;;;9979575;28;20050;-69
2022/10/18 17:37:26;;;;;;;40.33;27.23;;;;;;;;;;9983606;28;20097;-68
2022/10/18 17:42:23;;;;;;;37.83;27.60;;;;;;;;;;9985456;28;20080;-68
2022/10/18 17:47:24;;;;;;;38.03;27.00;;;;;;;;;;9985913;28;20544;-68
2022/10/18 17:52:21;;;;;;;51.88;29.40;;;;;;;;;;9981078;28;20054;-69
2022/10/18 17:57:15;;;;;;;44.42;30.75;;;;;;;;;;9981752;28;20062;-69
2022/10/18 18:02:10;;;;;;;43.58;31.85;;;;;;;;;;9979992;28;20046;-69
2022/10/18 18:07:03;;;;;;;46.58;30.13;;;;;;;;;;9978160;28;20057;-70
2022/10/18 18:11:58;;;;;;;46.60;31.58;;;;;;;;;;9978312;28;20417;-71
2022/10/18 18:16:56;;;;;;;46.40;30.60;;;;;;;;;;9981482;28;20054;-71
2022/10/18 18:21:57;;;;;;;43.17;33.35;;;;;;;;;;9978343;28;20058;-76
2022/10/18 18:27:00;;;;;;;43.78;29.35;;;;;;;;;;9980185;28;20132;-73
2022/10/18 18:32:00;;;;;;;46.97;32.05;;;;;;;;;;9980642;28;20054;-74
2022/10/18 18:36:57;;;;;;;44.17;29.42;;;;;;;;;;9972425;28;20067;-73
2022/10/18 18:41:56;;;;;;;69.57;31.55;;;;;;;;;;9981859;28;20054;-72
2022/10/18 18:46:57;;;;;;;46.05;33.70;;;;;;;;;;9984944;28;20128;-73
2022/10/18 18:51:55;;;;;;;50.65;36.13;;;;;;;;;;9981012;28;20054;-68
2022/10/18 18:56:50;;;;;;;53.83;35.38;;;;;;;;;;9974980;28;20504;-72
2022/10/18 19:01:44;;;;;;;49.83;36.47;;;;;;;;;;9980976;28;20476;-71
2022/10/18 19:06:43;;;;;;;53.65;35.40;;;;;;;;;;9983484;28;20421;-71
2022/10/18 19:11:40;;;;;;;47.53;33.15;;;;;;;;;;9981132;28;20408;-72
2022/10/18 19:17:08;;;;;;;46.20;33.97;;;;;;;;;;9980042;28;20141;-72
2022/10/18 19:22:07;;;;;;;55.70;34.30;;;;;;;;;;9974186;28;20058;-72
2022/10/18 19:27:04;;;;;;;44.83;32.88;;;;;;;;;;9979405;28;20539;-72
2022/10/18 19:32:00;;;;;;;46.63;32.78;;;;;;;;;;9997835;28;20057;-72
2022/10/18 19:36:57;;;;;;;47.00;35.60;;;;;;;;;;9978523;28;20065;-72
2022/10/18 19:41:54;;;;;;;47.85;34.35;;;;;;;;;;9978750;28;20050;-70
2022/10/18 19:46:48;;;;;;;54.75;35.83;;;;;;;;;;9979812;28;20553;-69
2022/10/18 19:51:43;;;;;;;51.45;33.55;;;;;;;;;;9975828;28;20129;-68
2022/10/18 19:56:36;;;;;;;45.88;31.25;;;;;;;;;;9973758;28;20472;-68
2022/10/18 20:01:30;;;;;;;46.92;31.20;;;;;;;;;;9975624;28;20066;-67
2022/10/18 20:06:23;;;;;;;53.95;34.05;;;;;;;;;;9975614;28;20047;-68
2022/10/18 20:11:20;;;;;;;48.13;34.35;;;;;;;;;;9975534;28;20445;-68
2022/10/18 20:16:20;;;;;;;54.55;37.60;;;;;;;;;;9986445;28;20052;-69
2022/10/18 20:21:19;;;;;;;52.60;35.22;;;;;;;;;;9977496;28;20105;-68
2022/10/18 20:26:17;;;;;;;52.80;36.33;;;;;;;;;;9985446;28;20082;-72
2022/10/18 20:31:11;;;;;;;53.17;38.38;;;;;;;;;;9983880;28;20125;-69
2022/10/18 20:36:14;;;;;;;61.20;37.80;;;;;;;;;;9986809;28;20086;-75
2022/10/18 20:41:17;;;;;;;59.08;37.72;;;;;;;;;;9986608;28;20476;-76
2022/10/18 20:46:15;;;;;;;59.38;39.95;;;;;;;;;;9986000;28;20142;-79
2022/10/18 20:51:13;;;;;;;54.97;40.55;;;;;;;;;;9988111;28;20050;-76
2022/10/18 20:56:12;;;;;;;62.85;42.38;;;;;;;;;;9986795;28;20046;-77
2022/10/18 21:01:15;;;;;;;56.60;38.13;;;;;;;;;;9984220;28;20558;-78
2022/10/18 21:06:20;;;;;;;54.78;36.97;;;;;;;;;;9984110;28;20050;-73
2022/10/18 21:11:16;;;;;;;54.90;36.28;;;;;;;;;;9983170;28;20050;-76
2022/10/18 21:16:14;;;;;;;58.22;37.80;;;;;;;;;;9982956;28;20307;-73
2022/10/18 21:21:14;;;;;;;58.55;34.20;;;;;;;;;;9983034;28;20120;-74
2022/10/18 21:26:22;;;;;;;55.38;37.15;;;;;;;;;;9997760;28;20050;-76
2022/10/18 21:31:17;;;;;;;55.17;36.22;;;;;;;;;;9981017;28;20493;-75
2022/10/18 21:36:16;;;;;;;50.95;36.50;;;;;;;;;;9980851;28;20047;-76
2022/10/18 21:41:12;;;;;;;47.75;34.80;;;;;;;;;;9971855;28;20146;-77
2022/10/18 21:46:11;;;;;;;55.40;33.90;;;;;;;;;;9981815;28;20075;-77
2022/10/18 21:51:11;;;;;;;52.78;35.72;;;;;;;;;;9988480;28;20050;-76
2022/10/18 21:56:12;;;;;;;48.22;33.65;;;;;;;;;;9989949;28;20077;-75
2022/10/18 22:01:11;;;;;;;46.37;34.37;;;;;;;;;;9988335;28;20054;-76
2022/10/18 22:06:15;;;;;;;54.33;33.60;;;;;;;;;;9988868;28;20050;-76
2022/10/18 22:11:12;;;;;;;43.80;31.13;;;;;;;;;;9987972;28;20077;-76
2022/10/18 22:16:13;;;;;;;46.50;31.50;;;;;;;;;;9987820;28;20378;-76
2022/10/18 22:21:16;;;;;;;45.80;31.60;;;;;;;;;;9989140;28;20070;-76
2022/10/18 22:26:15;;;;;;;46.05;31.15;;;;;;;;;;9977298;28;20054;-75
2022/10/18 22:31:34;;;;;;;42.08;31.58;;;;;;;;;;9982799;28;20514;-72
2022/10/18 22:36:29;;;;;;;41.83;28.55;;;;;;;;;;9986920;28;20046;-74
2022/10/18 22:41:27;;;;;;;43.13;30.07;;;;;;;;;;9987639;28;20056;-73
2022/10/18 22:46:25;;;;;;;44.97;29.55;;;;;;;;;;9987594;28;20525;-73
2022/10/18 22:51:23;;;;;;;42.90;29.50;;;;;;;;;;9988234;28;20104;-75
2022/10/18 22:56:20;;;;;;;40.22;28.23;;;;;;;;;;9987413;28;20039;-74
2022/10/18 23:01:19;;;;;;;37.25;28.55;;;;;;;;;;9986736;28;20050;-75
2022/10/18 23:06:18;;;;;;;38.42;26.80;;;;;;;;;;9986188;28;20048;-75
2022/10/18 23:11:13;;;;;;;39.88;28.65;;;;;;;;;;9985803;28;20061;-75
2022/10/18 23:16:09;;;;;;;37.38;28.52;;;;;;;;;;9987567;28;20062;-75
2022/10/18 23:21:03;;;;;;;38.15;27.77;;;;;;;;;;9986166;28;20066;-75
2022/10/18 23:25:59;;;;;;;33.92;25.58;;;;;;;;;;9985402;28;20053;-75
2022/10/18 23:30:55;;;;;;;36.63;27.05;;;;;;;;;;9985545;28;20144;-75
2022/10/18 23:35:53;;;;;;;37.15;26.67;;;;;;;;;;9985708;28;20054;-74
2022/10/18 23:40:53;;;;;;;40.22;26.55;;;;;;;;;;9985754;28;20412;-76
2022/10/18 23:45:50;;;;;;;;;;;;;;;;;;9985908;28;20097;-75
2022/10/18 23:50:45;;;;;;;35.17;24.88;;;;;;;;;;9985011;28;20024;-74
2022/10/18 23:55:53;;;;;;;35.53;26.63;;;;;;;;;;9986136;28;20046;-76
